sensor_id;sensor_type;location;lat;lon;timestamp;P1;durP1;ratioP1;P2;durP2;ratioP2
55776;SDS011;54079;44.540;18.784;2023-04-06T00:02:08;20.20;;;13.45;;
55776;SDS011;54079;44.540;18.784;2023-04-06T00:04:34;22.13;;;12.95;;
55776;SDS011;54079;44.540;18.784;2023-04-06T00:07:00;14.73;;;11.45;;
55776;SDS011;54079;44.540;18.784;2023-04-06T00:09:26;14.85;;;11.85;;
55776;SDS011;54079;44.540;18.784;2023-04-06T00:11:52;14.23;;;11.48;;
55776;SDS011;54079;44.540;18.784;2023-04-06T00:14:18;17.50;;;13.40;;
55776;SDS011;54079;44.540;18.784;2023-04-06T00:16:44;18.30;;;14.07;;
55776;SDS011;54079;44.540;18.784;2023-04-06T00:19:10;17.75;;;12.95;;
55776;SDS011;54079;44.540;18.784;2023-04-06T00:21:36;17.75;;;13.32;;
55776;SDS011;54079;44.540;18.784;2023-04-06T00:24:02;20.13;;;14.60;;
55776;SDS011;54079;44.540;18.784;2023-04-06T00:26:29;19.00;;;15.40;;
55776;SDS011;54079;44.540;18.784;2023-04-06T00:28:55;20.58;;;14.50;;
55776;SDS011;54079;44.540;18.784;2023-04-06T00:31:21;23.83;;;14.65;;
55776;SDS011;54079;44.540;18.784;2023-04-06T00:33:47;21.67;;;14.65;;
55776;SDS011;54079;44.540;18.784;2023-04-06T00:36:13;20.55;;;15.68;;
55776;SDS011;54079;44.540;18.784;2023-04-06T00:38:39;21.83;;;13.95;;
55776;SDS011;54079;44.540;18.784;2023-04-06T00:41:05;20.35;;;14.38;;
55776;SDS011;54079;44.540;18.784;2023-04-06T00:43:31;19.63;;;15.35;;
55776;SDS011;54079;44.540;18.784;2023-04-06T00:45:57;21.88;;;15.18;;
55776;SDS011;54079;44.540;18.784;2023-04-06T00:48:23;19.13;;;14.27;;
55776;SDS011;54079;44.540;18.784;2023-04-06T00:50:49;17.50;;;13.82;;
55776;SDS011;54079;44.540;18.784;2023-04-06T00:53:15;16.95;;;14.05;;
55776;SDS011;54079;44.540;18.784;2023-04-06T00:55:41;17.60;;;13.05;;
55776;SDS011;54079;44.540;18.784;2023-04-06T00:58:07;20.63;;;15.25;;
55776;SDS011;54079;44.540;18.784;2023-04-06T01:00:33;17.00;;;12.85;;
55776;SDS011;54079;44.540;18.784;2023-04-06T01:02:58;23.55;;;15.07;;
55776;SDS011;54079;44.540;18.784;2023-04-06T01:05:24;18.88;;;14.52;;
55776;SDS011;54079;44.540;18.784;2023-04-06T01:07:50;19.42;;;15.00;;
55776;SDS011;54079;44.540;18.784;2023-04-06T01:10:23;15.23;;;12.38;;
55776;SDS011;54079;44.540;18.784;2023-04-06T01:12:50;20.55;;;13.75;;
55776;SDS011;54079;44.540;18.784;2023-04-06T01:15:16;24.60;;;16.10;;
55776;SDS011;54079;44.540;18.784;2023-04-06T01:17:42;19.27;;;13.73;;
55776;SDS011;54079;44.540;18.784;2023-04-06T01:20:08;16.67;;;12.93;;
55776;SDS011;54079;44.540;18.784;2023-04-06T01:22:34;16.83;;;12.68;;
55776;SDS011;54079;44.540;18.784;2023-04-06T01:25:00;21.55;;;13.13;;
55776;SDS011;54079;44.540;18.784;2023-04-06T01:27:26;15.82;;;13.02;;
55776;SDS011;54079;44.540;18.784;2023-04-06T01:29:53;17.63;;;13.43;;
55776;SDS011;54079;44.540;18.784;2023-04-06T01:32:19;19.80;;;14.00;;
55776;SDS011;54079;44.540;18.784;2023-04-06T01:34:44;15.63;;;12.57;;
55776;SDS011;54079;44.540;18.784;2023-04-06T01:37:10;15.55;;;11.98;;
55776;SDS011;54079;44.540;18.784;2023-04-06T01:39:36;18.38;;;13.43;;
55776;SDS011;54079;44.540;18.784;2023-04-06T01:42:02;15.52;;;12.18;;
55776;SDS011;54079;44.540;18.784;2023-04-06T01:44:28;14.85;;;11.77;;
55776;SDS011;54079;44.540;18.784;2023-04-06T01:46:55;17.60;;;14.27;;
55776;SDS011;54079;44.540;18.784;2023-04-06T01:49:22;17.50;;;13.30;;
55776;SDS011;54079;44.540;18.784;2023-04-06T01:51:47;19.27;;;14.23;;
55776;SDS011;54079;44.540;18.784;2023-04-06T01:54:19;18.00;;;14.00;;
55776;SDS011;54079;44.540;18.784;2023-04-06T01:56:45;21.15;;;14.52;;
55776;SDS011;54079;44.540;18.784;2023-04-06T01:59:11;22.83;;;15.63;;
55776;SDS011;54079;44.540;18.784;2023-04-06T02:01:37;19.42;;;13.93;;
55776;SDS011;54079;44.540;18.784;2023-04-06T02:04:03;21.85;;;15.95;;
55776;SDS011;54079;44.540;18.784;2023-04-06T02:06:29;20.48;;;15.38;;
55776;SDS011;54079;44.540;18.784;2023-04-06T02:08:55;19.65;;;13.82;;
55776;SDS011;54079;44.540;18.784;2023-04-06T02:11:21;20.67;;;15.85;;
55776;SDS011;54079;44.540;18.784;2023-04-06T02:13:47;19.63;;;14.57;;
55776;SDS011;54079;44.540;18.784;2023-04-06T02:16:13;18.90;;;14.32;;
55776;SDS011;54079;44.540;18.784;2023-04-06T02:18:40;20.25;;;15.07;;
55776;SDS011;54079;44.540;18.784;2023-04-06T02:21:06;17.80;;;14.18;;
55776;SDS011;54079;44.540;18.784;2023-04-06T02:23:32;20.23;;;13.50;;
55776;SDS011;54079;44.540;18.784;2023-04-06T02:25:58;18.20;;;14.32;;
55776;SDS011;54079;44.540;18.784;2023-04-06T02:28:24;20.50;;;14.55;;
55776;SDS011;54079;44.540;18.784;2023-04-06T02:30:50;19.85;;;15.40;;
55776;SDS011;54079;44.540;18.784;2023-04-06T02:33:16;22.35;;;16.48;;
55776;SDS011;54079;44.540;18.784;2023-04-06T02:35:43;24.52;;;17.33;;
55776;SDS011;54079;44.540;18.784;2023-04-06T02:38:10;21.85;;;16.30;;
55776;SDS011;54079;44.540;18.784;2023-04-06T02:40:36;21.35;;;15.75;;
55776;SDS011;54079;44.540;18.784;2023-04-06T02:43:02;23.08;;;16.10;;
55776;SDS011;54079;44.540;18.784;2023-04-06T02:45:27;22.10;;;15.48;;
55776;SDS011;54079;44.540;18.784;2023-04-06T02:47:53;20.45;;;15.15;;
55776;SDS011;54079;44.540;18.784;2023-04-06T02:50:19;19.38;;;14.20;;
55776;SDS011;54079;44.540;18.784;2023-04-06T02:52:45;20.48;;;14.68;;
55776;SDS011;54079;44.540;18.784;2023-04-06T02:55:11;23.85;;;16.90;;
55776;SDS011;54079;44.540;18.784;2023-04-06T02:57:37;21.13;;;15.43;;
55776;SDS011;54079;44.540;18.784;2023-04-06T03:00:03;20.17;;;15.82;;
55776;SDS011;54079;44.540;18.784;2023-04-06T03:02:30;23.55;;;15.52;;
55776;SDS011;54079;44.540;18.784;2023-04-06T03:04:55;22.27;;;16.33;;
55776;SDS011;54079;44.540;18.784;2023-04-06T03:07:21;22.25;;;16.08;;
55776;SDS011;54079;44.540;18.784;2023-04-06T03:09:47;20.50;;;16.38;;
55776;SDS011;54079;44.540;18.784;2023-04-06T03:12:13;25.42;;;17.33;;
55776;SDS011;54079;44.540;18.784;2023-04-06T03:14:39;26.60;;;18.73;;
55776;SDS011;54079;44.540;18.784;2023-04-06T03:17:05;28.02;;;19.65;;
55776;SDS011;54079;44.540;18.784;2023-04-06T03:19:31;29.35;;;20.85;;
55776;SDS011;54079;44.540;18.784;2023-04-06T03:21:57;26.92;;;19.67;;
55776;SDS011;54079;44.540;18.784;2023-04-06T03:24:23;29.95;;;21.15;;
55776;SDS011;54079;44.540;18.784;2023-04-06T03:26:49;25.25;;;20.38;;
55776;SDS011;54079;44.540;18.784;2023-04-06T03:29:15;23.33;;;17.80;;
55776;SDS011;54079;44.540;18.784;2023-04-06T03:31:41;26.35;;;19.45;;
55776;SDS011;54079;44.540;18.784;2023-04-06T03:34:07;29.48;;;21.35;;
55776;SDS011;54079;44.540;18.784;2023-04-06T03:36:33;28.42;;;19.27;;
55776;SDS011;54079;44.540;18.784;2023-04-06T03:39:00;34.00;;;21.25;;
55776;SDS011;54079;44.540;18.784;2023-04-06T03:41:26;31.48;;;21.92;;
55776;SDS011;54079;44.540;18.784;2023-04-06T03:43:52;30.20;;;22.42;;
55776;SDS011;54079;44.540;18.784;2023-04-06T03:46:18;29.20;;;22.30;;
55776;SDS011;54079;44.540;18.784;2023-04-06T03:48:45;30.80;;;21.70;;
55776;SDS011;54079;44.540;18.784;2023-04-06T03:51:13;31.05;;;21.83;;
55776;SDS011;54079;44.540;18.784;2023-04-06T03:53:39;28.25;;;19.25;;
55776;SDS011;54079;44.540;18.784;2023-04-06T03:56:05;32.05;;;21.98;;
55776;SDS011;54079;44.540;18.784;2023-04-06T03:58:31;27.00;;;19.77;;
55776;SDS011;54079;44.540;18.784;2023-04-06T04:00:57;30.83;;;21.40;;
55776;SDS011;54079;44.540;18.784;2023-04-06T04:03:23;29.65;;;21.05;;
55776;SDS011;54079;44.540;18.784;2023-04-06T04:05:52;31.55;;;21.85;;
55776;SDS011;54079;44.540;18.784;2023-04-06T04:08:18;31.85;;;20.90;;
55776;SDS011;54079;44.540;18.784;2023-04-06T04:10:44;27.40;;;19.75;;
55776;SDS011;54079;44.540;18.784;2023-04-06T04:13:09;26.73;;;19.70;;
55776;SDS011;54079;44.540;18.784;2023-04-06T04:15:35;39.85;;;23.38;;
55776;SDS011;54079;44.540;18.784;2023-04-06T04:18:01;31.98;;;22.85;;
55776;SDS011;54079;44.540;18.784;2023-04-06T04:20:27;31.38;;;22.17;;
55776;SDS011;54079;44.540;18.784;2023-04-06T04:22:53;31.02;;;20.73;;
55776;SDS011;54079;44.540;18.784;2023-04-06T04:25:19;31.67;;;20.98;;
55776;SDS011;54079;44.540;18.784;2023-04-06T04:27:45;35.17;;;20.10;;
55776;SDS011;54079;44.540;18.784;2023-04-06T04:30:12;29.00;;;21.98;;
55776;SDS011;54079;44.540;18.784;2023-04-06T04:32:38;33.45;;;19.75;;
55776;SDS011;54079;44.540;18.784;2023-04-06T04:35:04;32.55;;;22.15;;
55776;SDS011;54079;44.540;18.784;2023-04-06T04:37:30;26.63;;;21.15;;
55776;SDS011;54079;44.540;18.784;2023-04-06T04:39:56;30.42;;;21.77;;
55776;SDS011;54079;44.540;18.784;2023-04-06T04:42:22;27.20;;;19.95;;
55776;SDS011;54079;44.540;18.784;2023-04-06T04:44:48;26.98;;;20.10;;
55776;SDS011;54079;44.540;18.784;2023-04-06T04:47:14;25.50;;;18.90;;
55776;SDS011;54079;44.540;18.784;2023-04-06T04:49:40;24.67;;;18.05;;
55776;SDS011;54079;44.540;18.784;2023-04-06T04:52:06;26.65;;;20.10;;
55776;SDS011;54079;44.540;18.784;2023-04-06T04:54:32;26.63;;;20.45;;
55776;SDS011;54079;44.540;18.784;2023-04-06T04:56:58;28.80;;;20.70;;
55776;SDS011;54079;44.540;18.784;2023-04-06T04:59:23;28.02;;;20.10;;
55776;SDS011;54079;44.540;18.784;2023-04-06T05:01:49;28.23;;;19.67;;
55776;SDS011;54079;44.540;18.784;2023-04-06T05:04:15;26.95;;;19.48;;
55776;SDS011;54079;44.540;18.784;2023-04-06T05:06:41;25.65;;;17.77;;
55776;SDS011;54079;44.540;18.784;2023-04-06T05:09:07;27.05;;;19.83;;
55776;SDS011;54079;44.540;18.784;2023-04-06T05:11:33;26.00;;;17.60;;
55776;SDS011;54079;44.540;18.784;2023-04-06T05:13:59;23.38;;;18.38;;
55776;SDS011;54079;44.540;18.784;2023-04-06T05:16:25;25.65;;;18.33;;
55776;SDS011;54079;44.540;18.784;2023-04-06T05:18:51;24.95;;;16.58;;
55776;SDS011;54079;44.540;18.784;2023-04-06T05:21:18;25.00;;;17.35;;
55776;SDS011;54079;44.540;18.784;2023-04-06T05:23:44;25.98;;;19.67;;
55776;SDS011;54079;44.540;18.784;2023-04-06T05:26:10;24.77;;;19.73;;
55776;SDS011;54079;44.540;18.784;2023-04-06T05:28:36;24.30;;;17.98;;
55776;SDS011;54079;44.540;18.784;2023-04-06T05:31:02;25.23;;;18.45;;
55776;SDS011;54079;44.540;18.784;2023-04-06T05:33:28;23.13;;;18.08;;
55776;SDS011;54079;44.540;18.784;2023-04-06T05:35:54;25.52;;;18.13;;
55776;SDS011;54079;44.540;18.784;2023-04-06T05:38:20;26.05;;;20.10;;
55776;SDS011;54079;44.540;18.784;2023-04-06T05:40:46;23.35;;;18.02;;
55776;SDS011;54079;44.540;18.784;2023-04-06T05:43:12;21.70;;;17.30;;
55776;SDS011;54079;44.540;18.784;2023-04-06T05:45:38;23.92;;;17.15;;
55776;SDS011;54079;44.540;18.784;2023-04-06T05:48:04;22.02;;;17.50;;
55776;SDS011;54079;44.540;18.784;2023-04-06T05:50:30;25.73;;;18.85;;
55776;SDS011;54079;44.540;18.784;2023-04-06T05:52:56;24.48;;;18.77;;
55776;SDS011;54079;44.540;18.784;2023-04-06T05:55:22;22.80;;;17.70;;
55776;SDS011;54079;44.540;18.784;2023-04-06T05:57:47;22.95;;;17.95;;
55776;SDS011;54079;44.540;18.784;2023-04-06T06:00:13;25.75;;;16.75;;
55776;SDS011;54079;44.540;18.784;2023-04-06T06:02:39;22.25;;;18.00;;
55776;SDS011;54079;44.540;18.784;2023-04-06T06:05:07;23.83;;;17.02;;
55776;SDS011;54079;44.540;18.784;2023-04-06T06:07:34;23.00;;;17.92;;
55776;SDS011;54079;44.540;18.784;2023-04-06T06:10:00;24.73;;;19.20;;
55776;SDS011;54079;44.540;18.784;2023-04-06T06:12:26;23.10;;;17.45;;
55776;SDS011;54079;44.540;18.784;2023-04-06T06:14:52;20.95;;;16.75;;
55776;SDS011;54079;44.540;18.784;2023-04-06T06:17:19;19.70;;;16.05;;
55776;SDS011;54079;44.540;18.784;2023-04-06T06:19:45;19.98;;;16.83;;
55776;SDS011;54079;44.540;18.784;2023-04-06T06:22:11;25.55;;;18.50;;
55776;SDS011;54079;44.540;18.784;2023-04-06T06:24:36;20.98;;;18.13;;
55776;SDS011;54079;44.540;18.784;2023-04-06T06:27:02;25.27;;;20.40;;
55776;SDS011;54079;44.540;18.784;2023-04-06T06:29:28;28.70;;;23.05;;
55776;SDS011;54079;44.540;18.784;2023-04-06T06:31:54;27.70;;;24.70;;
55776;SDS011;54079;44.540;18.784;2023-04-06T06:34:20;33.78;;;25.92;;
55776;SDS011;54079;44.540;18.784;2023-04-06T06:36:46;39.38;;;28.05;;
55776;SDS011;54079;44.540;18.784;2023-04-06T06:39:12;33.28;;;26.65;;
55776;SDS011;54079;44.540;18.784;2023-04-06T06:41:38;37.22;;;30.00;;
55776;SDS011;54079;44.540;18.784;2023-04-06T06:44:05;41.15;;;28.30;;
55776;SDS011;54079;44.540;18.784;2023-04-06T06:46:31;33.05;;;24.17;;
55776;SDS011;54079;44.540;18.784;2023-04-06T06:48:58;31.10;;;24.55;;
55776;SDS011;54079;44.540;18.784;2023-04-06T06:51:24;34.67;;;26.50;;
55776;SDS011;54079;44.540;18.784;2023-04-06T06:53:50;31.73;;;26.83;;
55776;SDS011;54079;44.540;18.784;2023-04-06T06:56:16;31.50;;;25.90;;
55776;SDS011;54079;44.540;18.784;2023-04-06T06:58:42;34.28;;;26.13;;
55776;SDS011;54079;44.540;18.784;2023-04-06T07:01:08;31.77;;;26.85;;
55776;SDS011;54079;44.540;18.784;2023-04-06T07:03:33;31.27;;;25.77;;
55776;SDS011;54079;44.540;18.784;2023-04-06T07:05:59;34.83;;;27.38;;
55776;SDS011;54079;44.540;18.784;2023-04-06T07:08:25;32.72;;;24.85;;
55776;SDS011;54079;44.540;18.784;2023-04-06T07:10:51;32.50;;;26.08;;
55776;SDS011;54079;44.540;18.784;2023-04-06T07:13:18;37.50;;;29.88;;
55776;SDS011;54079;44.540;18.784;2023-04-06T07:15:48;32.90;;;25.27;;
55776;SDS011;54079;44.540;18.784;2023-04-06T07:18:15;28.67;;;24.23;;
55776;SDS011;54079;44.540;18.784;2023-04-06T07:20:41;30.80;;;26.27;;
55776;SDS011;54079;44.540;18.784;2023-04-06T07:23:07;28.17;;;24.17;;
55776;SDS011;54079;44.540;18.784;2023-04-06T07:25:33;30.95;;;25.27;;
55776;SDS011;54079;44.540;18.784;2023-04-06T07:28:00;30.95;;;24.60;;
55776;SDS011;54079;44.540;18.784;2023-04-06T07:30:26;30.17;;;24.90;;
55776;SDS011;54079;44.540;18.784;2023-04-06T07:32:52;26.15;;;22.05;;
55776;SDS011;54079;44.540;18.784;2023-04-06T07:35:20;25.50;;;21.02;;
55776;SDS011;54079;44.540;18.784;2023-04-06T07:37:47;27.58;;;22.88;;
55776;SDS011;54079;44.540;18.784;2023-04-06T07:40:13;25.40;;;22.40;;
55776;SDS011;54079;44.540;18.784;2023-04-06T07:42:39;23.75;;;21.17;;
55776;SDS011;54079;44.540;18.784;2023-04-06T07:45:05;25.40;;;22.00;;
55776;SDS011;54079;44.540;18.784;2023-04-06T07:47:32;21.05;;;18.90;;
55776;SDS011;54079;44.540;18.784;2023-04-06T07:49:58;22.10;;;19.77;;
55776;SDS011;54079;44.540;18.784;2023-04-06T07:52:25;22.40;;;18.85;;
55776;SDS011;54079;44.540;18.784;2023-04-06T07:54:50;21.00;;;18.90;;
55776;SDS011;54079;44.540;18.784;2023-04-06T07:57:16;22.15;;;19.42;;
55776;SDS011;54079;44.540;18.784;2023-04-06T07:59:43;24.27;;;20.58;;
55776;SDS011;54079;44.540;18.784;2023-04-06T08:02:08;20.75;;;18.65;;
55776;SDS011;54079;44.540;18.784;2023-04-06T08:04:35;23.92;;;21.40;;
55776;SDS011;54079;44.540;18.784;2023-04-06T08:07:01;21.90;;;19.67;;
55776;SDS011;54079;44.540;18.784;2023-04-06T08:09:27;28.08;;;24.52;;
55776;SDS011;54079;44.540;18.784;2023-04-06T08:11:53;25.48;;;22.88;;
55776;SDS011;54079;44.540;18.784;2023-04-06T08:14:19;22.75;;;20.45;;
55776;SDS011;54079;44.540;18.784;2023-04-06T08:16:46;21.45;;;19.35;;
55776;SDS011;54079;44.540;18.784;2023-04-06T08:19:12;20.58;;;17.75;;
55776;SDS011;54079;44.540;18.784;2023-04-06T08:21:38;20.73;;;18.73;;
55776;SDS011;54079;44.540;18.784;2023-04-06T08:24:07;18.23;;;16.20;;
55776;SDS011;54079;44.540;18.784;2023-04-06T08:26:33;20.02;;;17.15;;
55776;SDS011;54079;44.540;18.784;2023-04-06T08:28:59;18.38;;;16.58;;
55776;SDS011;54079;44.540;18.784;2023-04-06T08:31:26;18.05;;;16.15;;
55776;SDS011;54079;44.540;18.784;2023-04-06T08:33:52;17.42;;;15.60;;
55776;SDS011;54079;44.540;18.784;2023-04-06T08:36:18;20.15;;;16.33;;
55776;SDS011;54079;44.540;18.784;2023-04-06T08:38:47;18.30;;;16.25;;
55776;SDS011;54079;44.540;18.784;2023-04-06T08:41:14;16.20;;;14.57;;
55776;SDS011;54079;44.540;18.784;2023-04-06T08:43:49;15.25;;;13.45;;
55776;SDS011;54079;44.540;18.784;2023-04-06T08:46:21;17.67;;;15.75;;
55776;SDS011;54079;44.540;18.784;2023-04-06T08:48:54;16.63;;;14.82;;
55776;SDS011;54079;44.540;18.784;2023-04-06T08:51:21;20.08;;;18.08;;
55776;SDS011;54079;44.540;18.784;2023-04-06T08:53:51;24.70;;;20.05;;
55776;SDS011;54079;44.540;18.784;2023-04-06T08:56:19;18.85;;;16.77;;
55776;SDS011;54079;44.540;18.784;2023-04-06T08:58:50;18.50;;;15.95;;
55776;SDS011;54079;44.540;18.784;2023-04-06T09:01:18;15.32;;;13.60;;
55776;SDS011;54079;44.540;18.784;2023-04-06T09:03:48;14.05;;;11.98;;
55776;SDS011;54079;44.540;18.784;2023-04-06T09:06:15;13.13;;;11.23;;
55776;SDS011;54079;44.540;18.784;2023-04-06T09:08:41;12.60;;;8.05;;
55776;SDS011;54079;44.540;18.784;2023-04-06T09:11:08;9.57;;;8.68;;
55776;SDS011;54079;44.540;18.784;2023-04-06T09:13:55;12.70;;;10.00;;
55776;SDS011;54079;44.540;18.784;2023-04-06T09:16:21;15.15;;;11.50;;
55776;SDS011;54079;44.540;18.784;2023-04-06T09:18:48;12.40;;;9.98;;
55776;SDS011;54079;44.540;18.784;2023-04-06T09:21:18;9.93;;;8.50;;
55776;SDS011;54079;44.540;18.784;2023-04-06T09:23:44;10.63;;;8.10;;
55776;SDS011;54079;44.540;18.784;2023-04-06T09:26:14;10.35;;;7.78;;
55776;SDS011;54079;44.540;18.784;2023-04-06T09:31:11;13.77;;;11.63;;
55776;SDS011;54079;44.540;18.784;2023-04-06T09:33:38;15.15;;;12.68;;
55776;SDS011;54079;44.540;18.784;2023-04-06T09:36:09;15.02;;;11.95;;
55776;SDS011;54079;44.540;18.784;2023-04-06T09:38:38;10.15;;;7.53;;
55776;SDS011;54079;44.540;18.784;2023-04-06T09:41:05;8.73;;;7.00;;
55776;SDS011;54079;44.540;18.784;2023-04-06T09:43:31;12.15;;;9.63;;
55776;SDS011;54079;44.540;18.784;2023-04-06T09:45:57;13.65;;;10.30;;
55776;SDS011;54079;44.540;18.784;2023-04-06T09:48:28;15.57;;;10.98;;
55776;SDS011;54079;44.540;18.784;2023-04-06T09:50:57;9.77;;;8.30;;
55776;SDS011;54079;44.540;18.784;2023-04-06T09:53:28;17.30;;;11.32;;
55776;SDS011;54079;44.540;18.784;2023-04-06T09:55:57;8.73;;;7.50;;
55776;SDS011;54079;44.540;18.784;2023-04-06T09:58:27;17.88;;;12.68;;
55776;SDS011;54079;44.540;18.784;2023-04-06T10:01:04;12.70;;;8.65;;
55776;SDS011;54079;44.540;18.784;2023-04-06T10:03:49;15.18;;;11.82;;
55776;SDS011;54079;44.540;18.784;2023-04-06T10:06:21;12.45;;;9.32;;
55776;SDS011;54079;44.540;18.784;2023-04-06T10:08:50;15.27;;;11.98;;
55776;SDS011;54079;44.540;18.784;2023-04-06T10:11:19;17.20;;;12.90;;
55776;SDS011;54079;44.540;18.784;2023-04-06T10:13:46;14.35;;;10.38;;
55776;SDS011;54079;44.540;18.784;2023-04-06T10:16:14;11.20;;;8.70;;
55776;SDS011;54079;44.540;18.784;2023-04-06T10:18:42;12.43;;;8.38;;
55776;SDS011;54079;44.540;18.784;2023-04-06T10:21:12;11.13;;;7.93;;
55776;SDS011;54079;44.540;18.784;2023-04-06T10:23:45;16.15;;;12.23;;
55776;SDS011;54079;44.540;18.784;2023-04-06T10:26:24;16.70;;;12.48;;
55776;SDS011;54079;44.540;18.784;2023-04-06T10:28:50;16.30;;;10.85;;
55776;SDS011;54079;44.540;18.784;2023-04-06T10:31:24;20.20;;;14.30;;
55776;SDS011;54079;44.540;18.784;2023-04-06T10:34:00;19.77;;;12.40;;
55776;SDS011;54079;44.540;18.784;2023-04-06T10:39:05;15.48;;;11.63;;
55776;SDS011;54079;44.540;18.784;2023-04-06T10:41:36;10.95;;;7.93;;
55776;SDS011;54079;44.540;18.784;2023-04-06T10:44:06;11.23;;;8.60;;
55776;SDS011;54079;44.540;18.784;2023-04-06T10:46:33;12.00;;;9.18;;
55776;SDS011;54079;44.540;18.784;2023-04-06T10:49:11;11.48;;;8.60;;
55776;SDS011;54079;44.540;18.784;2023-04-06T10:51:38;16.15;;;11.32;;
55776;SDS011;54079;44.540;18.784;2023-04-06T10:54:05;12.25;;;7.60;;
55776;SDS011;54079;44.540;18.784;2023-04-06T10:56:32;9.30;;;7.32;;
55776;SDS011;54079;44.540;18.784;2023-04-06T10:59:01;12.52;;;8.57;;
55776;SDS011;54079;44.540;18.784;2023-04-06T11:01:27;10.63;;;7.35;;
55776;SDS011;54079;44.540;18.784;2023-04-06T11:03:54;11.10;;;7.80;;
55776;SDS011;54079;44.540;18.784;2023-04-06T11:06:27;10.23;;;7.80;;
55776;SDS011;54079;44.540;18.784;2023-04-06T11:08:56;17.02;;;12.52;;
55776;SDS011;54079;44.540;18.784;2023-04-06T11:11:23;18.05;;;13.82;;
55776;SDS011;54079;44.540;18.784;2023-04-06T11:13:58;13.68;;;10.70;;
55776;SDS011;54079;44.540;18.784;2023-04-06T11:18:57;8.60;;;7.32;;
55776;SDS011;54079;44.540;18.784;2023-04-06T11:21:39;10.85;;;8.35;;
55776;SDS011;54079;44.540;18.784;2023-04-06T11:24:19;13.43;;;9.75;;
55776;SDS011;54079;44.540;18.784;2023-04-06T11:26:47;12.05;;;8.30;;
55776;SDS011;54079;44.540;18.784;2023-04-06T11:29:19;9.15;;;6.95;;
55776;SDS011;54079;44.540;18.784;2023-04-06T11:31:47;8.57;;;6.30;;
55776;SDS011;54079;44.540;18.784;2023-04-06T11:34:18;17.88;;;12.70;;
55776;SDS011;54079;44.540;18.784;2023-04-06T11:36:44;11.02;;;7.22;;
55776;SDS011;54079;44.540;18.784;2023-04-06T11:39:19;10.40;;;7.10;;
55776;SDS011;54079;44.540;18.784;2023-04-06T11:41:49;11.43;;;8.73;;
55776;SDS011;54079;44.540;18.784;2023-04-06T11:44:38;11.35;;;8.40;;
55776;SDS011;54079;44.540;18.784;2023-04-06T11:47:11;11.18;;;8.00;;
55776;SDS011;54079;44.540;18.784;2023-04-06T11:49:38;11.63;;;8.52;;
55776;SDS011;54079;44.540;18.784;2023-04-06T11:52:24;14.48;;;11.02;;
55776;SDS011;54079;44.540;18.784;2023-04-06T11:54:52;10.68;;;7.65;;
55776;SDS011;54079;44.540;18.784;2023-04-06T11:57:20;11.10;;;8.23;;
55776;SDS011;54079;44.540;18.784;2023-04-06T11:59:49;8.77;;;6.00;;
55776;SDS011;54079;44.540;18.784;2023-04-06T12:02:15;15.02;;;10.35;;
55776;SDS011;54079;44.540;18.784;2023-04-06T12:04:42;11.63;;;8.35;;
55776;SDS011;54079;44.540;18.784;2023-04-06T12:07:09;9.63;;;6.80;;
55776;SDS011;54079;44.540;18.784;2023-04-06T12:09:35;11.30;;;8.60;;
55776;SDS011;54079;44.540;18.784;2023-04-06T12:12:02;13.35;;;8.70;;
55776;SDS011;54079;44.540;18.784;2023-04-06T12:14:28;12.15;;;8.70;;
55776;SDS011;54079;44.540;18.784;2023-04-06T12:16:56;11.00;;;6.40;;
55776;SDS011;54079;44.540;18.784;2023-04-06T12:19:22;8.60;;;6.32;;
55776;SDS011;54079;44.540;18.784;2023-04-06T12:21:51;11.57;;;7.65;;
55776;SDS011;54079;44.540;18.784;2023-04-06T12:24:18;12.80;;;9.23;;
55776;SDS011;54079;44.540;18.784;2023-04-06T12:26:44;12.75;;;9.38;;
55776;SDS011;54079;44.540;18.784;2023-04-06T12:29:10;11.52;;;8.82;;
55776;SDS011;54079;44.540;18.784;2023-04-06T12:31:38;14.35;;;10.82;;
55776;SDS011;54079;44.540;18.784;2023-04-06T12:34:05;9.20;;;6.90;;
55776;SDS011;54079;44.540;18.784;2023-04-06T12:36:31;22.42;;;16.45;;
55776;SDS011;54079;44.540;18.784;2023-04-06T12:38:58;24.98;;;17.48;;
55776;SDS011;54079;44.540;18.784;2023-04-06T12:41:25;19.55;;;14.00;;
55776;SDS011;54079;44.540;18.784;2023-04-06T12:43:51;17.35;;;11.25;;
55776;SDS011;54079;44.540;18.784;2023-04-06T12:46:17;23.33;;;15.95;;
55776;SDS011;54079;44.540;18.784;2023-04-06T12:48:43;19.58;;;13.45;;
55776;SDS011;54079;44.540;18.784;2023-04-06T12:51:09;16.70;;;12.45;;
55776;SDS011;54079;44.540;18.784;2023-04-06T12:53:35;11.82;;;7.70;;
55776;SDS011;54079;44.540;18.784;2023-04-06T12:56:01;15.65;;;7.90;;
55776;SDS011;54079;44.540;18.784;2023-04-06T12:58:36;14.00;;;8.48;;
55776;SDS011;54079;44.540;18.784;2023-04-06T13:01:05;11.60;;;9.48;;
55776;SDS011;54079;44.540;18.784;2023-04-06T13:03:32;11.48;;;7.88;;
55776;SDS011;54079;44.540;18.784;2023-04-06T13:05:58;14.02;;;10.25;;
55776;SDS011;54079;44.540;18.784;2023-04-06T13:08:25;9.57;;;7.60;;
55776;SDS011;54079;44.540;18.784;2023-04-06T13:10:52;7.75;;;5.32;;
55776;SDS011;54079;44.540;18.784;2023-04-06T13:13:22;7.55;;;6.03;;
55776;SDS011;54079;44.540;18.784;2023-04-06T13:15:53;8.45;;;5.78;;
55776;SDS011;54079;44.540;18.784;2023-04-06T13:18:20;10.80;;;7.13;;
55776;SDS011;54079;44.540;18.784;2023-04-06T13:20:48;12.00;;;8.70;;
55776;SDS011;54079;44.540;18.784;2023-04-06T13:23:14;10.90;;;7.80;;
55776;SDS011;54079;44.540;18.784;2023-04-06T13:25:41;15.70;;;11.07;;
55776;SDS011;54079;44.540;18.784;2023-04-06T13:28:07;10.43;;;7.80;;
55776;SDS011;54079;44.540;18.784;2023-04-06T13:30:33;11.60;;;7.03;;
55776;SDS011;54079;44.540;18.784;2023-04-06T13:32:59;14.82;;;11.30;;
55776;SDS011;54079;44.540;18.784;2023-04-06T13:35:25;12.20;;;8.88;;
55776;SDS011;54079;44.540;18.784;2023-04-06T13:37:51;10.90;;;7.82;;
55776;SDS011;54079;44.540;18.784;2023-04-06T13:40:17;7.25;;;5.10;;
55776;SDS011;54079;44.540;18.784;2023-04-06T13:42:43;6.60;;;4.70;;
55776;SDS011;54079;44.540;18.784;2023-04-06T13:45:11;9.40;;;6.07;;
55776;SDS011;54079;44.540;18.784;2023-04-06T13:47:37;9.00;;;6.70;;
55776;SDS011;54079;44.540;18.784;2023-04-06T13:50:03;10.35;;;8.23;;
55776;SDS011;54079;44.540;18.784;2023-04-06T13:52:29;5.97;;;5.32;;
55776;SDS011;54079;44.540;18.784;2023-04-06T13:54:55;11.27;;;7.50;;
55776;SDS011;54079;44.540;18.784;2023-04-06T13:57:21;8.65;;;4.78;;
55776;SDS011;54079;44.540;18.784;2023-04-06T13:59:47;7.63;;;5.40;;
55776;SDS011;54079;44.540;18.784;2023-04-06T14:02:15;7.38;;;4.85;;
55776;SDS011;54079;44.540;18.784;2023-04-06T14:04:42;10.82;;;7.45;;
55776;SDS011;54079;44.540;18.784;2023-04-06T14:07:08;9.77;;;6.65;;
55776;SDS011;54079;44.540;18.784;2023-04-06T14:09:34;12.63;;;6.85;;
55776;SDS011;54079;44.540;18.784;2023-04-06T14:12:01;6.30;;;4.55;;
55776;SDS011;54079;44.540;18.784;2023-04-06T14:14:27;7.00;;;5.07;;
55776;SDS011;54079;44.540;18.784;2023-04-06T14:16:53;7.65;;;6.18;;
55776;SDS011;54079;44.540;18.784;2023-04-06T14:19:19;7.95;;;5.68;;
55776;SDS011;54079;44.540;18.784;2023-04-06T14:21:47;8.23;;;6.07;;